createdAt,value
2019-03-16T00:01:08.065Z,13.17
2019-03-16T00:03:36.296Z,11.33
2019-03-16T00:06:04.488Z,9.07
2019-03-16T00:08:32.605Z,17.90
2019-03-16T00:11:00.829Z,12.67
2019-03-16T00:13:28.960Z,11.10
2019-03-16T00:15:57.232Z,10.03
2019-03-16T00:18:25.496Z,12.63
2019-03-16T00:20:53.613Z,12.90
2019-03-16T00:23:21.755Z,11.20
2019-03-16T00:25:49.884Z,10.13
2019-03-16T00:28:18.132Z,13.00
2019-03-16T00:30:46.259Z,11.60
2019-03-16T00:33:14.455Z,9.20
2019-03-16T00:35:42.570Z,11.57
2019-03-16T00:38:10.716Z,14.80
2019-03-16T00:40:38.823Z,14.73
2019-03-16T00:43:06.960Z,21.03
2019-03-16T00:45:35.073Z,15.07
2019-03-16T00:48:03.202Z,14.07
2019-03-16T00:50:31.400Z,11.07
2019-03-16T00:52:59.505Z,11.00
2019-03-16T00:55:27.652Z,18.93
2019-03-16T00:57:55.761Z,13.83
2019-03-16T01:00:23.925Z,13.30
2019-03-16T01:02:52.039Z,8.93
2019-03-16T01:05:20.170Z,12.63
2019-03-16T01:07:48.588Z,11.17
2019-03-16T01:10:16.798Z,11.27
2019-03-16T01:12:44.912Z,12.60
2019-03-16T01:15:13.203Z,14.27
2019-03-16T01:17:41.662Z,13.80
2019-03-16T01:20:10.659Z,11.43
2019-03-16T01:22:38.839Z,13.47
2019-03-16T01:25:07.531Z,16.10
2019-03-16T01:27:35.645Z,11.47
2019-03-16T01:30:05.141Z,11.60
2019-03-16T01:32:40.583Z,17.33
2019-03-16T01:35:04.107Z,11.20
2019-03-16T01:37:32.227Z,13.87
2019-03-16T01:40:00.392Z,18.43
2019-03-16T01:42:28.741Z,17.67
2019-03-16T01:44:56.876Z,16.50
2019-03-16T01:47:24.989Z,15.47
2019-03-16T01:49:53.109Z,15.93
2019-03-16T01:52:21.248Z,14.57
2019-03-16T01:54:49.362Z,22.53
2019-03-16T01:57:17.493Z,15.27
2019-03-16T01:59:45.614Z,15.50
2019-03-16T02:02:13.742Z,11.50
2019-03-16T02:04:41.843Z,13.37
2019-03-16T02:07:10.067Z,20.70
2019-03-16T02:09:38.495Z,15.73
2019-03-16T02:12:06.633Z,14.57
2019-03-16T02:14:34.749Z,17.47
2019-03-16T02:17:02.889Z,12.07
2019-03-16T02:19:31.005Z,12.37
2019-03-16T02:21:59.132Z,15.87
2019-03-16T02:24:27.250Z,11.40
2019-03-16T02:26:55.381Z,13.40
2019-03-16T02:29:23.514Z,10.90
2019-03-16T02:31:51.652Z,9.37
2019-03-16T02:34:19.760Z,9.93
2019-03-16T02:36:51.550Z,9.97
2019-03-16T02:39:19.682Z,6.37
2019-03-16T02:41:48.065Z,5.90
2019-03-16T02:44:16.245Z,6.67
2019-03-16T02:46:44.356Z,8.27
2019-03-16T02:49:12.476Z,7.30
2019-03-16T02:51:40.588Z,6.70
2019-03-16T02:54:08.794Z,5.97
2019-03-16T02:56:36.909Z,3.90
2019-03-16T02:59:05.038Z,5.70
2019-03-16T03:01:33.142Z,5.57
2019-03-16T03:04:01.264Z,6.10
2019-03-16T03:06:29.374Z,7.80
2019-03-16T03:08:57.500Z,5.57
2019-03-16T03:11:25.617Z,4.40
2019-03-16T03:13:53.739Z,4.87
2019-03-16T03:16:21.923Z,6.33
2019-03-16T03:18:50.406Z,4.97
2019-03-16T03:21:18.586Z,7.33
2019-03-16T03:23:46.807Z,6.47
2019-03-16T03:26:14.908Z,7.07
2019-03-16T03:28:43.135Z,6.10
2019-03-16T03:31:11.241Z,4.50
2019-03-16T03:33:58.470Z,8.93
2019-03-16T03:36:09.201Z,7.40
2019-03-16T03:38:37.345Z,4.67
2019-03-16T03:41:06.337Z,3.67
2019-03-16T03:43:34.505Z,4.73
2019-03-16T03:46:02.637Z,6.87
2019-03-16T03:48:30.744Z,6.00
2019-03-16T03:50:58.957Z,4.70
2019-03-16T03:53:27.092Z,4.17
2019-03-16T03:55:55.289Z,4.93
2019-03-16T03:58:23.396Z,5.60
2019-03-16T04:00:51.594Z,5.37
2019-03-16T04:03:19.882Z,3.87
2019-03-16T04:05:48.072Z,4.07
2019-03-16T04:08:16.249Z,4.40
2019-03-16T04:10:44.785Z,7.13
2019-03-16T04:13:12.893Z,6.80
2019-03-16T04:15:41.149Z,4.43
2019-03-16T04:18:09.281Z,3.97
2019-03-16T04:20:37.399Z,3.90
2019-03-16T04:23:05.521Z,4.23
2019-03-16T04:25:33.638Z,3.70
2019-03-16T04:28:01.819Z,2.63
2019-03-16T04:30:29.993Z,2.93
2019-03-16T04:32:58.170Z,3.43
2019-03-16T04:35:26.462Z,3.10
2019-03-16T04:37:54.660Z,4.13
2019-03-16T04:40:22.865Z,3.10
2019-03-16T04:42:51.050Z,4.20
2019-03-16T04:45:19.289Z,2.93
2019-03-16T04:47:47.466Z,2.40
2019-03-16T04:50:15.580Z,1.90
2019-03-16T04:52:43.704Z,2.30
2019-03-16T04:55:11.890Z,3.23
2019-03-16T04:57:40.016Z,2.07
2019-03-16T05:00:09.661Z,2.10
2019-03-16T05:02:37.785Z,2.03
2019-03-16T05:05:06.197Z,1.60
2019-03-16T05:07:34.365Z,2.23
2019-03-16T05:10:02.469Z,6.37
2019-03-16T05:12:30.597Z,3.10
2019-03-16T05:14:58.949Z,1.60
2019-03-16T05:17:27.089Z,1.83
2019-03-16T05:19:55.199Z,2.37
2019-03-16T05:22:24.244Z,5.13
2019-03-16T05:24:52.343Z,1.43
2019-03-16T05:27:20.468Z,2.83
2019-03-16T05:29:48.572Z,3.47
2019-03-16T05:32:16.796Z,1.87
2019-03-16T05:34:55.847Z,1.23
2019-03-16T05:37:14.909Z,1.70
2019-03-16T05:39:43.008Z,1.90
2019-03-16T05:42:11.143Z,1.97
2019-03-16T05:44:39.254Z,2.30
2019-03-16T05:47:07.412Z,3.10
2019-03-16T05:49:35.560Z,3.77
2019-03-16T05:52:03.664Z,3.93
2019-03-16T05:54:31.798Z,3.13
2019-03-16T05:56:59.916Z,2.70
2019-03-16T05:59:28.121Z,3.30
2019-03-16T06:01:56.248Z,2.77
2019-03-16T06:04:24.440Z,4.03
2019-03-16T06:06:52.558Z,2.93
2019-03-16T06:09:20.954Z,2.93
2019-03-16T06:11:49.052Z,4.07
2019-03-16T06:14:17.171Z,2.60
2019-03-16T06:16:45.276Z,3.33
2019-03-16T06:19:13.407Z,2.50
2019-03-16T06:21:41.511Z,4.40
2019-03-16T06:24:09.633Z,3.80
2019-03-16T06:26:37.828Z,2.43
2019-03-16T06:29:06.111Z,2.70
2019-03-16T06:31:34.308Z,3.00
2019-03-16T06:34:02.417Z,3.87
2019-03-16T06:36:30.540Z,5.63
2019-03-16T06:38:58.649Z,2.10
2019-03-16T06:41:27.155Z,2.33
2019-03-16T06:43:55.298Z,3.87
2019-03-16T06:46:23.660Z,4.67
2019-03-16T06:48:51.858Z,3.70
2019-03-16T06:51:20.106Z,2.13
2019-03-16T06:53:48.326Z,5.37
2019-03-16T06:56:16.453Z,3.00
2019-03-16T06:58:44.623Z,4.23
2019-03-16T07:01:12.829Z,2.30
2019-03-16T07:03:40.945Z,5.20
2019-03-16T07:06:09.144Z,2.27
2019-03-16T07:08:37.282Z,5.40
2019-03-16T07:11:05.402Z,3.40
2019-03-16T07:13:33.526Z,4.13
2019-03-16T07:16:01.634Z,2.57
2019-03-16T07:18:29.781Z,4.20
2019-03-16T07:20:57.974Z,2.30
2019-03-16T07:23:26.218Z,4.60
2019-03-16T07:25:54.514Z,5.37
2019-03-16T07:28:22.694Z,2.97
2019-03-16T07:30:50.848Z,4.23
2019-03-16T07:33:18.997Z,4.67
2019-03-16T07:35:47.129Z,3.27
2019-03-16T07:38:15.270Z,4.23
2019-03-16T07:40:43.416Z,3.53
2019-03-16T07:43:11.980Z,5.63
2019-03-16T07:45:40.105Z,4.53
2019-03-16T07:48:08.227Z,6.37
2019-03-16T07:50:36.383Z,5.40
2019-03-16T07:53:04.581Z,4.73
2019-03-16T07:55:32.708Z,3.77
2019-03-16T07:58:00.900Z,6.43
2019-03-16T08:00:29.094Z,5.67
2019-03-16T08:02:57.317Z,4.40
2019-03-16T08:05:25.428Z,4.73
2019-03-16T08:07:53.608Z,7.03
2019-03-16T08:10:21.769Z,4.37
2019-03-16T08:12:49.918Z,7.03
2019-03-16T08:15:18.038Z,7.33
2019-03-16T08:17:46.180Z,5.53
2019-03-16T08:20:14.439Z,5.77
2019-03-16T08:22:43.213Z,7.87
2019-03-16T08:25:11.351Z,5.83
2019-03-16T08:27:53.014Z,5.90
2019-03-16T08:30:12.640Z,5.70
2019-03-16T08:32:40.769Z,4.70
2019-03-16T08:35:09.534Z,4.03
2019-03-16T08:37:37.623Z,4.37
2019-03-16T08:40:07.293Z,6.97
2019-03-16T08:42:35.396Z,5.43
2019-03-16T08:45:04.492Z,5.60
2019-03-16T08:47:32.600Z,10.43
2019-03-16T08:50:00.734Z,6.77
2019-03-16T08:52:28.828Z,5.37
2019-03-16T08:54:56.961Z,8.70
2019-03-16T08:57:25.069Z,5.00
2019-03-16T08:59:53.227Z,4.60
2019-03-16T09:02:21.368Z,4.00
2019-03-16T09:04:49.501Z,4.30
2019-03-16T09:07:17.608Z,2.07
2019-03-16T09:09:45.837Z,3.13
2019-03-16T09:12:13.940Z,2.10
2019-03-16T09:14:42.080Z,5.63
2019-03-16T09:17:10.184Z,3.17
2019-03-16T09:19:38.326Z,3.07
2019-03-16T09:22:06.496Z,4.93
2019-03-16T09:24:34.648Z,3.23
2019-03-16T09:27:02.807Z,1.37
2019-03-16T09:29:30.951Z,2.40
2019-03-16T09:31:59.108Z,5.57
2019-03-16T09:34:27.261Z,3.00
2019-03-16T09:36:55.509Z,3.80
2019-03-16T09:39:23.654Z,3.43
2019-03-16T09:41:52.880Z,3.03
2019-03-16T09:44:21.073Z,2.57
2019-03-16T09:46:49.227Z,2.80
2019-03-16T09:49:17.372Z,5.30
2019-03-16T09:51:45.633Z,7.33
2019-03-16T09:54:13.773Z,2.20
2019-03-16T09:56:41.893Z,2.43
2019-03-16T09:59:10.038Z,1.83
2019-03-16T10:01:38.251Z,2.53
2019-03-16T10:04:06.515Z,2.43
2019-03-16T10:06:34.702Z,2.00
2019-03-16T10:09:03.518Z,1.67
2019-03-16T10:11:31.646Z,1.57
2019-03-16T10:14:01.785Z,0.97
2019-03-16T10:16:29.969Z,3.63
2019-03-16T10:18:58.112Z,1.73
2019-03-16T10:21:26.245Z,1.30
2019-03-16T10:23:54.351Z,1.87
2019-03-16T10:26:22.818Z,1.97
2019-03-16T10:28:50.929Z,2.67
2019-03-16T10:31:19.052Z,2.00
2019-03-16T10:33:47.168Z,1.63
2019-03-16T10:36:15.300Z,1.17
2019-03-16T10:38:43.673Z,1.70
2019-03-16T10:41:11.775Z,2.07
2019-03-16T10:43:39.900Z,1.40
2019-03-16T10:46:08.570Z,2.07
2019-03-16T10:48:36.824Z,1.23
2019-03-16T10:51:05.005Z,2.30
2019-03-16T10:53:33.136Z,1.07
2019-03-16T10:56:01.333Z,2.23
2019-03-16T10:58:29.558Z,2.30
2019-03-16T11:00:57.740Z,2.80
2019-03-16T11:03:25.854Z,1.60
2019-03-16T11:05:54.049Z,0.63
2019-03-16T11:08:22.169Z,1.10
2019-03-16T11:10:50.289Z,2.10
2019-03-16T11:13:18.401Z,0.77
2019-03-16T11:15:46.532Z,2.53
2019-03-16T11:18:14.637Z,0.97
2019-03-16T11:20:42.764Z,1.57
2019-03-16T11:23:10.877Z,2.83
2019-03-16T11:25:38.996Z,1.03
2019-03-16T11:28:07.109Z,0.60
2019-03-16T11:30:35.343Z,0.60
2019-03-16T11:33:03.508Z,1.60
2019-03-16T11:35:31.640Z,2.17
2019-03-16T11:37:59.835Z,1.73
2019-03-16T11:40:28.034Z,0.93
2019-03-16T11:42:56.253Z,1.27
2019-03-16T11:45:24.449Z,1.87
2019-03-16T11:47:52.552Z,1.03
2019-03-16T11:50:20.752Z,0.80
2019-03-16T11:52:48.856Z,1.00
2019-03-16T11:55:16.966Z,1.43
2019-03-16T11:57:45.163Z,2.80
2019-03-16T12:00:15.999Z,0.87
2019-03-16T12:02:44.133Z,1.30
2019-03-16T12:05:12.242Z,2.00
2019-03-16T12:07:40.370Z,1.70
2019-03-16T12:10:10.008Z,0.70
2019-03-16T12:12:38.233Z,2.23
2019-03-16T12:15:07.800Z,1.77
2019-03-16T12:17:35.933Z,1.87
2019-03-16T12:20:05.623Z,1.63
2019-03-16T12:22:33.785Z,3.03
2019-03-16T12:25:01.956Z,1.93
2019-03-16T12:27:30.076Z,1.13
2019-03-16T12:29:58.185Z,4.20
2019-03-16T12:32:26.321Z,5.17
2019-03-16T12:34:54.429Z,3.63
2019-03-16T12:37:22.554Z,2.07
2019-03-16T12:39:50.670Z,1.50
2019-03-16T12:42:18.805Z,0.77
2019-03-16T12:44:46.959Z,2.10
2019-03-16T12:47:15.134Z,3.57
2019-03-16T12:49:43.261Z,1.20
2019-03-16T12:52:11.396Z,2.40
2019-03-16T12:54:39.521Z,2.03
2019-03-16T12:57:07.713Z,2.30
2019-03-16T12:59:46.397Z,5.47
2019-03-16T13:02:05.703Z,1.40
2019-03-16T13:04:33.885Z,1.50
2019-03-16T13:07:02.098Z,0.97
2019-03-16T13:09:30.208Z,4.80
2019-03-16T13:11:58.336Z,1.10
2019-03-16T13:14:26.441Z,1.70
2019-03-16T13:16:54.633Z,3.10
2019-03-16T13:19:22.762Z,1.40
2019-03-16T13:21:50.878Z,3.00
2019-03-16T13:24:19.014Z,1.77
2019-03-16T13:26:47.125Z,2.50
2019-03-16T13:29:15.258Z,1.93
2019-03-16T13:31:43.436Z,1.97
2019-03-16T13:34:11.574Z,1.73
2019-03-16T13:36:39.676Z,1.50
2019-03-16T13:39:07.959Z,1.20
2019-03-16T13:41:36.072Z,1.93
2019-03-16T13:44:04.278Z,1.73
2019-03-16T13:46:32.372Z,1.90
2019-03-16T13:49:00.500Z,1.10
2019-03-16T13:51:28.607Z,1.97
2019-03-16T13:53:56.738Z,2.47
2019-03-16T13:56:24.852Z,1.17
2019-03-16T13:58:53.265Z,0.83
2019-03-16T14:01:21.377Z,1.80
2019-03-16T14:03:49.501Z,1.43
2019-03-16T14:06:17.653Z,1.90
2019-03-16T14:08:45.785Z,2.27
2019-03-16T14:11:14.168Z,3.13
2019-03-16T14:13:42.351Z,1.17
2019-03-16T14:16:10.841Z,1.43
2019-03-16T14:18:38.974Z,2.53
2019-03-16T14:21:07.072Z,1.53
2019-03-16T14:23:35.244Z,1.33
2019-03-16T14:26:03.351Z,1.90
2019-03-16T14:28:31.537Z,1.43
2019-03-16T14:30:59.989Z,3.70
2019-03-16T14:33:28.454Z,2.17
2019-03-16T14:35:57.014Z,1.70
2019-03-16T14:38:25.183Z,2.70
2019-03-16T14:40:53.459Z,2.43
2019-03-16T14:43:21.555Z,3.23
2019-03-16T14:45:49.689Z,4.03
2019-03-16T14:48:17.971Z,4.27
2019-03-16T14:50:46.197Z,2.57
2019-03-16T14:53:14.380Z,2.17
2019-03-16T14:55:42.525Z,1.37
2019-03-16T14:58:10.624Z,2.63
2019-03-16T15:00:39.103Z,2.03
2019-03-16T15:03:07.239Z,2.20
2019-03-16T15:05:35.347Z,4.00
2019-03-16T15:08:03.602Z,2.93
2019-03-16T15:10:31.779Z,1.37
2019-03-16T15:12:59.895Z,4.23
2019-03-16T15:15:28.093Z,3.90
2019-03-16T15:17:56.977Z,2.10
2019-03-16T15:20:25.073Z,2.30
2019-03-16T15:22:53.601Z,3.50
2019-03-16T15:25:21.951Z,4.37
2019-03-16T15:27:50.084Z,4.37
2019-03-16T15:30:21.869Z,1.33
2019-03-16T15:32:50.047Z,3.20
2019-03-16T15:35:18.163Z,2.10
2019-03-16T15:37:46.269Z,2.63
2019-03-16T15:40:14.879Z,1.60
2019-03-16T15:42:43.068Z,3.60
2019-03-16T15:45:12.461Z,1.60
2019-03-16T15:47:40.651Z,2.70
2019-03-16T15:50:08.968Z,4.80
2019-03-16T15:52:37.730Z,2.10
2019-03-16T15:55:06.650Z,3.67
2019-03-16T15:57:34.747Z,2.93
2019-03-16T16:00:03.849Z,2.53
2019-03-16T16:02:31.950Z,2.53
2019-03-16T16:05:00.121Z,3.47
2019-03-16T16:07:28.357Z,1.30
2019-03-16T16:09:56.568Z,3.07
2019-03-16T16:12:24.683Z,2.80
2019-03-16T16:14:52.853Z,2.80
2019-03-16T16:17:21.044Z,2.90
2019-03-16T16:19:49.157Z,2.03
2019-03-16T16:22:17.365Z,1.40
2019-03-16T16:24:45.480Z,2.10
2019-03-16T16:27:13.672Z,3.43
2019-03-16T16:29:41.771Z,4.60
2019-03-16T16:32:09.919Z,5.93
2019-03-16T16:34:38.109Z,3.37
2019-03-16T16:37:06.257Z,2.87
2019-03-16T16:39:34.363Z,4.60
2019-03-16T16:42:02.495Z,5.10
2019-03-16T16:44:30.701Z,2.50
2019-03-16T16:46:58.868Z,1.60
2019-03-16T16:49:26.993Z,3.43
2019-03-16T16:51:55.105Z,1.60
2019-03-16T16:54:23.223Z,2.20
2019-03-16T16:56:51.635Z,2.37
2019-03-16T16:59:19.781Z,3.17
2019-03-16T17:01:47.940Z,3.73
2019-03-16T17:04:16.073Z,3.90
2019-03-16T17:06:44.192Z,6.17
2019-03-16T17:09:12.591Z,3.30
2019-03-16T17:11:40.701Z,4.17
2019-03-16T17:14:08.809Z,3.83
2019-03-16T17:16:37.004Z,6.03
2019-03-16T17:19:05.176Z,4.50
2019-03-16T17:21:33.387Z,5.40
2019-03-16T17:24:01.494Z,3.57
2019-03-16T17:26:29.641Z,3.13
2019-03-16T17:28:57.796Z,7.17
2019-03-16T17:31:25.925Z,5.43
2019-03-16T17:33:54.028Z,4.63
2019-03-16T17:36:22.422Z,5.07
2019-03-16T17:38:50.656Z,16.27
2019-03-16T17:41:18.812Z,4.67
2019-03-16T17:43:46.913Z,6.20
2019-03-16T17:46:15.027Z,4.20
2019-03-16T17:48:43.135Z,4.60
2019-03-16T17:51:11.266Z,4.33
2019-03-16T17:53:39.425Z,9.20
2019-03-16T17:56:07.552Z,4.17
2019-03-16T17:58:35.832Z,3.77
2019-03-16T18:01:04.088Z,3.47
2019-03-16T18:03:32.192Z,5.83
2019-03-16T18:06:00.328Z,5.67
2019-03-16T18:08:28.436Z,4.07
2019-03-16T18:10:56.555Z,6.50
2019-03-16T18:13:24.695Z,5.53
2019-03-16T18:15:52.906Z,3.67
2019-03-16T18:18:21.152Z,6.47
2019-03-16T18:20:49.278Z,6.47
2019-03-16T18:23:17.390Z,4.43
2019-03-16T18:25:45.511Z,6.33
2019-03-16T18:28:13.618Z,5.97
2019-03-16T18:30:41.723Z,5.20
2019-03-16T18:33:09.856Z,4.93
2019-03-16T18:35:37.961Z,5.23
2019-03-16T18:38:06.091Z,5.40
2019-03-16T18:40:34.250Z,5.73
2019-03-16T18:43:02.401Z,7.03
2019-03-16T18:45:32.044Z,5.23
2019-03-16T18:48:00.175Z,5.23
2019-03-16T18:50:28.692Z,6.10
2019-03-16T18:52:56.813Z,4.53
2019-03-16T18:55:25.074Z,4.90
2019-03-16T18:57:53.241Z,4.27
2019-03-16T19:00:21.432Z,5.73
2019-03-16T19:02:49.569Z,4.87
2019-03-16T19:05:17.756Z,4.77
2019-03-16T19:07:45.868Z,5.67
2019-03-16T19:10:15.526Z,4.73
2019-03-16T19:12:43.904Z,4.73
2019-03-16T19:15:12.912Z,5.93
2019-03-16T19:17:41.012Z,4.57
2019-03-16T19:20:10.387Z,5.67
2019-03-16T19:22:38.496Z,3.13
2019-03-16T19:25:08.199Z,3.47
2019-03-16T19:27:36.549Z,5.10
2019-03-16T19:30:06.207Z,5.13
2019-03-16T19:32:37.580Z,3.83
2019-03-16T19:35:04.653Z,4.57
2019-03-16T19:37:32.771Z,3.53
2019-03-16T19:40:01.064Z,5.37
2019-03-16T19:42:29.260Z,3.83
2019-03-16T19:44:57.379Z,6.03
2019-03-16T19:47:25.764Z,4.90
2019-03-16T19:49:53.868Z,5.17
2019-03-16T19:52:22.005Z,4.70
2019-03-16T19:54:50.112Z,8.70
2019-03-16T19:57:18.243Z,4.57
2019-03-16T19:59:46.356Z,5.47
2019-03-16T20:02:14.485Z,4.23
2019-03-16T20:04:42.587Z,4.07
2019-03-16T20:07:19.265Z,5.87
2019-03-16T20:09:40.549Z,4.77
2019-03-16T20:12:08.684Z,2.53
2019-03-16T20:14:36.791Z,3.00
2019-03-16T20:17:04.925Z,3.70
2019-03-16T20:19:33.049Z,3.37
2019-03-16T20:22:01.188Z,4.80
2019-03-16T20:24:29.685Z,3.60
2019-03-16T20:26:57.922Z,4.27
2019-03-16T20:29:26.019Z,4.10
2019-03-16T20:31:54.143Z,4.53
2019-03-16T20:34:22.257Z,2.97
2019-03-16T20:36:50.368Z,4.73
2019-03-16T20:39:18.498Z,5.10
2019-03-16T20:41:46.684Z,3.50
2019-03-16T20:44:15.070Z,4.10
2019-03-16T20:46:43.272Z,4.23
2019-03-16T20:49:11.385Z,2.73
2019-03-16T20:51:39.526Z,2.80
2019-03-16T20:54:07.971Z,3.47
2019-03-16T20:56:36.252Z,3.00
2019-03-16T20:59:04.461Z,3.37
2019-03-16T21:01:32.669Z,2.50
2019-03-16T21:04:01.005Z,2.10
2019-03-16T21:06:29.181Z,3.03
2019-03-16T21:09:02.940Z,2.47
2019-03-16T21:11:27.249Z,4.27
2019-03-16T21:13:55.385Z,4.40
2019-03-16T21:16:23.597Z,3.70
2019-03-16T21:18:51.784Z,3.00
2019-03-16T21:21:19.883Z,1.97
2019-03-16T21:23:48.015Z,4.13
2019-03-16T21:26:16.116Z,2.93
2019-03-16T21:28:44.220Z,1.83
2019-03-16T21:31:12.343Z,2.13
2019-03-16T21:33:40.452Z,1.77
2019-03-16T21:36:08.576Z,2.00
2019-03-16T21:38:36.685Z,2.43
2019-03-16T21:41:05.181Z,2.97
2019-03-16T21:43:33.285Z,2.97
2019-03-16T21:46:01.422Z,2.47
2019-03-16T21:48:29.620Z,2.53
2019-03-16T21:50:57.815Z,2.63
2019-03-16T21:53:25.929Z,3.17
2019-03-16T21:55:54.065Z,2.23
2019-03-16T21:58:22.169Z,2.97
2019-03-16T22:00:50.273Z,1.87
2019-03-16T22:03:18.409Z,2.03
2019-03-16T22:05:46.517Z,1.77
2019-03-16T22:08:14.976Z,5.07
2019-03-16T22:10:43.088Z,1.57
2019-03-16T22:13:11.259Z,1.83
2019-03-16T22:15:39.374Z,1.60
2019-03-16T22:18:07.533Z,1.93
2019-03-16T22:20:35.644Z,2.50
2019-03-16T22:23:06.222Z,2.53
2019-03-16T22:25:33.630Z,3.67
2019-03-16T22:28:02.764Z,2.17
2019-03-16T22:30:30.876Z,2.30
2019-03-16T22:32:58.981Z,2.77
2019-03-16T22:35:27.103Z,2.90
2019-03-16T22:37:55.212Z,2.63
2019-03-16T22:40:23.357Z,2.00
2019-03-16T22:42:51.455Z,3.07
2019-03-16T22:45:19.595Z,1.73
2019-03-16T22:47:47.697Z,2.97
2019-03-16T22:50:17.379Z,2.67
2019-03-16T22:52:45.545Z,3.93
2019-03-16T22:55:15.907Z,4.30
2019-03-16T22:57:43.768Z,2.77
2019-03-16T23:00:13.310Z,1.90
2019-03-16T23:02:41.505Z,4.70
2019-03-16T23:05:10.459Z,1.37
2019-03-16T23:07:38.645Z,1.80
2019-03-16T23:10:08.307Z,3.33
2019-03-16T23:12:36.508Z,3.10
2019-03-16T23:15:06.290Z,1.73
2019-03-16T23:17:34.484Z,1.77
2019-03-16T23:20:02.854Z,2.63
2019-03-16T23:22:30.977Z,1.93
2019-03-16T23:24:59.085Z,4.03
2019-03-16T23:27:27.227Z,2.57
2019-03-16T23:29:55.323Z,3.10
2019-03-16T23:32:23.452Z,1.80
2019-03-16T23:34:51.555Z,1.53
2019-03-16T23:37:19.669Z,1.80
2019-03-16T23:39:47.800Z,2.27
2019-03-16T23:42:15.909Z,2.10
2019-03-16T23:44:44.033Z,1.87
2019-03-16T23:47:12.257Z,3.33
2019-03-16T23:49:40.457Z,2.43
2019-03-16T23:52:08.566Z,2.77
2019-03-16T23:54:36.765Z,2.17
2019-03-16T23:57:04.933Z,3.10
2019-03-16T23:59:33.063Z,2.40
